Aviation Digital Data Service (ADDS)

Output produced by METARs form (2044 UTC 30 July 2016)
found at http://aviationweather.gov/adds/metars/
 
KBPT 302027Z 00000KT 3SM VCTS -RA BR FEW046 BKN070 OVC100 27/25 A3000 RMK AO2 LTG DSNT SW RAB1959 TSE21 P0010 T02670250